Time;durP1;ratioP1;P1;durP2;ratioP2;P2;SDS_P1;SDS_P2;PMS_P1;PMS_P2;Temp;Humidity;BMP_temperature;BMP_pressure;BME280_temperature;BME280_humidity;BME280_pressure;Samples;Min_cycle;Max_cycle;Signal;HPM_P1;HPM_P2
2023/02/07 00:00:20;;;;;;;0.50;0.40;;;0.20;99.90;;;;;;5040206;28;20237;-79
2023/02/07 00:02:49;;;;;;;0.50;0.40;;;0.10;99.90;;;;;;5040748;28;20229;-80
2023/02/07 00:05:16;;;;;;;2.75;1.42;;;0.10;99.90;;;;;;5040400;28;20715;-80
2023/02/07 00:07:45;;;;;;;0.50;0.43;;;0.00;99.90;;;;;;5041078;28;20311;-81
2023/02/07 00:10:11;;;;;;;0.50;0.40;;;0.10;99.90;;;;;;5041776;28;20195;-80
2023/02/07 00:12:38;;;;;;;1.02;1.02;;;0.00;99.90;;;;;;5041405;28;20306;-79
2023/02/07 00:15:06;;;;;;;0.50;0.40;;;0.00;99.90;;;;;;5041230;28;20214;-80
2023/02/07 00:17:33;;;;;;;0.47;0.40;;;0.00;99.90;;;;;;5040974;28;20844;-79
2023/02/07 00:20:00;;;;;;;0.50;0.50;;;0.00;99.90;;;;;;5041065;28;20241;-79
2023/02/07 00:22:27;;;;;;;0.77;0.60;;;0.10;99.90;;;;;;5042110;28;20192;-79
2023/02/07 00:24:55;;;;;;;3.92;3.60;;;0.20;99.90;;;;;;5039357;28;20262;-80
2023/02/07 00:27:22;;;;;;;0.77;0.77;;;0.30;99.90;;;;;;5039878;28;20306;-80
2023/02/07 00:29:49;;;;;;;0.50;0.50;;;0.40;99.90;;;;;;5039822;28;20286;-80
2023/02/07 00:32:16;;;;;;;0.50;0.50;;;0.50;99.90;;;;;;5039875;28;20230;-79
2023/02/07 00:34:45;;;;;;;5.05;4.60;;;0.50;99.90;;;;;;5038700;28;20234;-80
2023/02/07 00:37:12;;;;;;;0.50;0.40;;;0.60;99.90;;;;;;5038824;28;20318;-78
2023/02/07 00:39:39;;;;;;;0.80;0.77;;;0.60;99.90;;;;;;5038516;28;20621;-77
2023/02/07 00:42:07;;;;;;;1.02;1.02;;;0.60;99.90;;;;;;5038820;28;20195;-78
2023/02/07 00:44:34;;;;;;;0.50;0.40;;;0.70;99.90;;;;;;5038068;28;20195;-80
2023/02/07 00:47:01;;;;;;;0.50;0.40;;;0.80;99.90;;;;;;5038454;28;20259;-79
2023/02/07 00:49:28;;;;;;;0.50;0.40;;;0.80;99.90;;;;;;5037876;28;20229;-79
2023/02/07 00:51:55;;;;;;;3.63;1.48;;;0.80;99.90;;;;;;5038438;28;20621;-80
2023/02/07 00:54:22;;;;;;;0.50;0.40;;;0.80;99.90;;;;;;5037985;28;20217;-77
2023/02/07 00:56:48;;;;;;;0.47;0.40;;;0.90;99.90;;;;;;5038216;28;20211;-80
2023/02/07 00:59:17;;;;;;;0.50;0.50;;;0.90;99.90;;;;;;5037052;28;20199;-79
2023/02/07 01:01:43;;;;;;;0.50;0.40;;;0.90;99.90;;;;;;5037398;28;20203;-78
2023/02/07 01:04:10;;;;;;;0.50;0.40;;;0.90;99.90;;;;;;5037323;28;20549;-80
2023/02/07 01:06:37;;;;;;;0.50;0.40;;;0.90;99.90;;;;;;5036672;28;20226;-78
2023/02/07 01:09:06;;;;;;;0.50;0.40;;;0.90;99.90;;;;;;5037495;28;20286;-79
2023/02/07 01:11:33;;;;;;;0.50;0.40;;;1.00;99.90;;;;;;5036057;28;20192;-78
2023/02/07 01:14:01;;;;;;;0.50;0.40;;;0.90;99.90;;;;;;5036933;28;20245;-79
2023/02/07 01:16:31;;;;;;;2.90;2.80;;;1.00;99.90;;;;;;5036555;28;20227;-79
2023/02/07 01:19:00;;;;;;;0.50;0.40;;;0.90;99.90;;;;;;5037420;28;20661;-80
2023/02/07 01:21:27;;;;;;;1.10;1.02;;;0.90;99.90;;;;;;5037466;28;20223;-79
2023/02/07 01:23:55;;;;;;;0.93;0.90;;;0.80;99.90;;;;;;5037666;28;20230;-79
2023/02/07 01:26:23;;;;;;;0.50;0.43;;;0.80;99.90;;;;;;5035625;28;20207;-80
2023/02/07 01:28:50;;;;;;;0.50;0.40;;;0.70;99.90;;;;;;5038180;28;20214;-81
2023/02/07 01:31:17;;;;;;;0.50;0.40;;;0.60;99.90;;;;;;5038513;28;20199;-80
2023/02/07 01:33:45;;;;;;;0.50;0.40;;;0.50;99.90;;;;;;5038215;28;20283;-79
2023/02/07 01:36:14;;;;;;;1.02;1.02;;;0.40;99.90;;;;;;5037974;28;20223;-80
2023/02/07 01:38:42;;;;;;;0.50;0.50;;;0.30;99.90;;;;;;5038540;28;20247;-81
2023/02/07 01:41:09;;;;;;;0.50;0.40;;;0.20;99.90;;;;;;5038988;28;20290;-81
2023/02/07 01:43:59;;;;;;;0.50;0.40;;;0.00;99.90;;;;;;5038850;28;20223;-80
2023/02/07 01:46:27;;;;;;;3.83;3.53;;;0.00;99.90;;;;;;5038316;28;20337;-80
2023/02/07 01:48:58;;;;;;;0.50;0.40;;;0.00;99.90;;;;;;5038667;28;20251;-80
2023/02/07 01:51:26;;;;;;;0.65;0.65;;;-0.10;99.90;;;;;;5038693;28;20210;-80
2023/02/07 01:53:55;;;;;;;0.50;0.40;;;-0.10;99.90;;;;;;5038697;28;20199;-80
2023/02/07 01:56:23;;;;;;;0.50;0.40;;;-0.20;99.90;;;;;;5038704;28;20194;-80
2023/02/07 01:58:50;;;;;;;0.50;0.40;;;-0.30;99.90;;;;;;5038529;28;20290;-80
2023/02/07 02:01:22;;;;;;;0.50;0.40;;;-0.40;99.90;;;;;;5038165;28;20235;-78
2023/02/07 02:03:52;;;;;;;1.20;1.15;;;-0.50;99.90;;;;;;5037975;28;20708;-80
2023/02/07 02:06:21;;;;;;;2.85;2.65;;;-0.50;99.90;;;;;;5039059;28;20310;-81
2023/02/07 02:08:48;;;;;;;0.50;0.40;;;-0.60;99.90;;;;;;5045263;28;20735;-80
2023/02/07 02:11:33;;;;;;;0.60;0.60;;;-0.60;99.90;;;;;;5040278;28;20191;-80
2023/02/07 02:14:08;;;;;;;0.50;0.50;;;-0.60;99.90;;;;;;5038589;28;20226;-80
2023/02/07 02:16:40;;;;;;;0.70;0.70;;;-0.60;99.90;;;;;;5037777;28;20198;-81
2023/02/07 02:19:35;;;;;;;0.50;0.40;;;-0.60;99.90;;;;;;5039052;28;20289;-79
2023/02/07 02:22:24;;;;;;;0.80;0.80;;;-0.60;99.90;;;;;;5038701;28;20230;-80
2023/02/07 02:25:24;;;;;;;0.50;0.40;;;-0.70;99.90;;;;;;5038515;28;20263;-79
2023/02/07 02:28:12;;;;;;;0.50;0.40;;;-0.70;99.90;;;;;;5010244;28;20219;-80
2023/02/07 02:31:08;;;;;;;0.50;0.40;;;-0.60;99.90;;;;;;5039824;28;20573;-80
2023/02/07 02:33:48;;;;;;;0.50;0.50;;;-0.50;99.90;;;;;;5039397;28;20262;-79
2023/02/07 02:36:23;;;;;;;4.03;1.63;;;-0.50;99.90;;;;;;5039170;28;20226;-80
2023/02/07 02:38:58;;;;;;;0.50;0.43;;;-0.50;99.90;;;;;;5038635;28;20219;-81
2023/02/07 02:41:31;;;;;;;0.50;0.50;;;-0.40;99.90;;;;;;5040731;28;20195;-80
2023/02/07 02:44:02;;;;;;;0.50;0.40;;;-0.40;99.90;;;;;;5039069;28;20234;-81
2023/02/07 02:46:34;;;;;;;0.50;0.40;;;-0.40;99.90;;;;;;5040787;28;20199;-80
2023/02/07 02:49:05;;;;;;;0.50;0.40;;;-0.40;99.90;;;;;;5038130;28;20630;-79
2023/02/07 02:51:32;;;;;;;0.60;0.60;;;-0.30;99.90;;;;;;5038862;28;20207;-80
2023/02/07 02:54:00;;;;;;;0.50;0.40;;;-0.30;99.90;;;;;;5038180;28;20238;-81
2023/02/07 02:56:43;;;;;;;0.50;0.40;;;-0.30;99.90;;;;;;5038397;28;20219;-80
2023/02/07 02:59:38;;;;;;;0.50;0.40;;;-0.20;99.90;;;;;;5038605;28;20226;-80
2023/02/07 03:02:17;;;;;;;0.47;0.40;;;-0.20;99.90;;;;;;5038249;28;20227;-80
2023/02/07 03:05:09;;;;;;;3.90;3.60;;;-0.20;99.90;;;;;;5041518;28;20203;-80
2023/02/07 03:07:46;;;;;;;0.50;0.50;;;-0.10;99.90;;;;;;5038142;28;20479;-79
2023/02/07 03:10:21;;;;;;;1.05;0.95;;;-0.20;99.90;;;;;;5038051;28;20221;-81
2023/02/07 03:12:54;;;;;;;0.50;0.40;;;-0.10;99.90;;;;;;5037975;28;20175;-80
2023/02/07 03:15:32;;;;;;;0.50;0.40;;;-0.20;99.90;;;;;;5037894;28;20234;-80
2023/02/07 03:18:05;;;;;;;0.50;0.50;;;-0.20;99.90;;;;;;5038763;28;20241;-80
2023/02/07 03:20:35;;;;;;;0.50;0.40;;;-0.20;99.90;;;;;;5038818;28;20223;-80
2023/02/07 03:23:04;;;;;;;0.45;0.40;;;-0.20;99.90;;;;;;5037691;28;20200;-80
2023/02/07 03:25:32;;;;;;;0.50;0.40;;;-0.10;99.90;;;;;;5037613;28;20199;-80
2023/02/07 03:27:59;;;;;;;0.60;0.60;;;-0.20;99.90;;;;;;5037601;28;20219;-79
2023/02/07 03:30:30;;;;;;;6.93;1.60;;;-0.20;99.90;;;;;;5038347;28;20230;-80
2023/02/07 03:33:02;;;;;;;1.23;1.13;;;-0.20;99.90;;;;;;5038567;28;20243;-80
2023/02/07 03:35:35;;;;;;;0.50;0.40;;;-0.20;99.90;;;;;;5041589;28;20622;-80
2023/02/07 03:38:04;;;;;;;0.50;0.40;;;-0.20;99.90;;;;;;5042326;28;20212;-79
2023/02/07 03:40:37;;;;;;;0.50;0.40;;;-0.30;99.90;;;;;;5042306;28;20206;-80
2023/02/07 03:43:08;;;;;;;2.55;2.35;;;-0.30;99.90;;;;;;5042899;28;20269;-80
2023/02/07 03:45:35;;;;;;;1.40;1.02;;;-0.30;99.90;;;;;;5041399;28;20187;-81
2023/02/07 03:48:02;;;;;;;0.50;0.40;;;-0.40;99.90;;;;;;5042736;28;20255;-80
2023/02/07 03:50:29;;;;;;;0.50;0.50;;;-0.40;99.90;;;;;;5041809;28;20665;-80
2023/02/07 03:52:56;;;;;;;0.50;0.40;;;-0.40;99.90;;;;;;5042636;28;20630;-81
2023/02/07 03:55:24;;;;;;;1.35;1.23;;;-0.50;99.90;;;;;;5042158;28;20195;-80
2023/02/07 03:57:51;;;;;;;0.50;0.43;;;-0.50;99.90;;;;;;5041980;28;20580;-80
2023/02/07 04:00:19;;;;;;;0.50;0.50;;;-0.50;99.90;;;;;;5042457;28;20226;-79
2023/02/07 04:02:46;;;;;;;1.17;1.17;;;-0.50;99.90;;;;;;5041533;28;20257;-76
2023/02/07 04:05:12;;;;;;;1.35;1.35;;;-0.60;99.90;;;;;;5041833;28;20222;-80
2023/02/07 04:07:39;;;;;;;0.70;0.70;;;-0.60;99.90;;;;;;5041673;28;20302;-78
2023/02/07 04:10:07;;;;;;;0.50;0.50;;;-0.70;99.90;;;;;;5042348;28;20647;-80
2023/02/07 04:12:35;;;;;;;0.50;0.40;;;-0.80;99.90;;;;;;5041731;28;20203;-80
2023/02/07 04:15:03;;;;;;;0.60;0.60;;;-0.80;99.90;;;;;;5040729;28;20195;-81
2023/02/07 04:17:31;;;;;;;0.70;0.70;;;-0.90;99.90;;;;;;5040181;28;20239;-78
2023/02/07 04:20:00;;;;;;;0.50;0.40;;;-0.90;99.90;;;;;;5041648;28;20250;-81
2023/02/07 04:22:27;;;;;;;0.77;0.77;;;-0.90;99.90;;;;;;5041001;28;20191;-79
2023/02/07 04:24:54;;;;;;;5.88;3.53;;;-0.90;99.90;;;;;;5040232;28;20199;-79
2023/02/07 04:27:21;;;;;;;1.35;1.25;;;-0.90;99.90;;;;;;5040476;28;20313;-81
2023/02/07 04:29:49;;;;;;;3.17;2.97;;;-0.90;99.90;;;;;;5043255;28;20287;-81
2023/02/07 04:32:16;;;;;;;0.50;0.40;;;-0.90;99.90;;;;;;5042485;28;20203;-81
2023/02/07 04:34:43;;;;;;;0.50;0.40;;;-0.90;99.90;;;;;;5042585;28;20201;-81
2023/02/07 04:37:10;;;;;;;0.75;0.75;;;-0.90;99.90;;;;;;5043148;28;20208;-81
2023/02/07 04:39:37;;;;;;;2.35;2.15;;;-0.90;99.90;;;;;;5042590;28;20226;-81
2023/02/07 04:42:06;;;;;;;1.15;1.05;;;-0.90;99.90;;;;;;5042864;28;20199;-80
2023/02/07 04:44:33;;;;;;;0.50;0.50;;;-0.90;99.90;;;;;;5042772;28;20203;-81
2023/02/07 04:47:01;;;;;;;0.50;0.43;;;-0.90;99.90;;;;;;5048149;28;20685;-80
2023/02/07 04:49:28;;;;;;;0.50;0.40;;;-1.10;99.90;;;;;;5054216;28;20545;-81
2023/02/07 04:51:55;;;;;;;0.50;0.40;;;-1.10;99.90;;;;;;5053382;28;20230;-81
2023/02/07 04:54:22;;;;;;;3.42;1.55;;;-1.10;99.90;;;;;;5052009;28;20199;-78
2023/02/07 04:56:49;;;;;;;0.50;0.40;;;-1.10;99.90;;;;;;5041631;28;20775;-79
2023/02/07 04:59:16;;;;;;;0.50;0.40;;;-1.10;99.90;;;;;;5040807;28;20235;-80
2023/02/07 05:01:43;;;;;;;0.63;0.63;;;-1.00;99.90;;;;;;5042062;28;20235;-79
2023/02/07 05:04:11;;;;;;;0.50;0.40;;;-1.00;99.90;;;;;;5047946;28;20227;-78
2023/02/07 05:06:38;;;;;;;0.50;0.40;;;-1.00;99.90;;;;;;5049664;28;20203;-80
2023/02/07 05:09:05;;;;;;;0.50;0.40;;;-1.10;99.90;;;;;;5049224;28;20191;-79
2023/02/07 05:11:32;;;;;;;0.50;0.40;;;-1.10;99.90;;;;;;5049359;28;20640;-79
2023/02/07 05:13:58;;;;;;;0.50;0.50;;;-1.10;99.90;;;;;;5050273;28;20236;-81
2023/02/07 05:16:25;;;;;;;0.63;0.63;;;-1.10;99.90;;;;;;5046000;28;20267;-78
2023/02/07 05:18:52;;;;;;;0.50;0.40;;;-1.10;99.90;;;;;;5040478;28;20283;-79
2023/02/07 05:21:21;;;;;;;0.50;0.40;;;-1.10;99.90;;;;;;5040748;28;20598;-80
2023/02/07 05:23:47;;;;;;;0.50;0.47;;;-1.00;99.90;;;;;;5043075;28;20202;-77
2023/02/07 05:26:15;;;;;;;0.50;0.40;;;-1.10;99.90;;;;;;5047039;28;20219;-79
2023/02/07 05:28:42;;;;;;;0.50;0.40;;;-1.00;99.90;;;;;;5049855;28;20215;-78
2023/02/07 05:31:09;;;;;;;2.97;1.88;;;-1.00;99.90;;;;;;5050502;28;20218;-80
2023/02/07 05:33:35;;;;;;;1.15;1.15;;;-1.00;99.90;;;;;;5049165;28;20206;-79
2023/02/07 05:36:03;;;;;;;0.50;0.50;;;-0.90;99.90;;;;;;5059210;28;20731;-80
2023/02/07 05:38:32;;;;;;;0.95;0.95;;;-0.90;99.90;;;;;;5070585;28;20206;-79
2023/02/07 05:40:58;;;;;;;0.50;0.40;;;-0.90;99.90;;;;;;5068028;28;20195;-79
2023/02/07 05:43:25;;;;;;;0.57;0.55;;;-0.90;99.90;;;;;;5063653;28;20628;-77
2023/02/07 05:45:52;;;;;;;0.50;0.40;;;-1.00;99.90;;;;;;5058994;28;20728;-77
2023/02/07 05:48:19;;;;;;;0.82;0.82;;;-1.00;99.90;;;;;;5057584;28;20600;-79
2023/02/07 05:50:46;;;;;;;1.15;1.15;;;-1.10;99.90;;;;;;5060383;28;20190;-78
2023/02/07 05:53:13;;;;;;;0.50;0.45;;;-1.10;99.90;;;;;;5065013;28;20230;-81
2023/02/07 05:55:41;;;;;;;4.75;4.32;;;-1.20;99.90;;;;;;5070513;28;20190;-80
2023/02/07 05:58:08;;;;;;;0.50;0.40;;;-1.30;99.90;;;;;;5067951;28;20214;-79
2023/02/07 06:00:35;;;;;;;3.80;2.38;;;-1.30;99.90;;;;;;5060910;28;20226;-81
2023/02/07 06:03:02;;;;;;;0.50;0.40;;;-1.40;99.90;;;;;;5062250;28;20194;-81
2023/02/07 06:05:30;;;;;;;2.50;2.40;;;-1.30;99.90;;;;;;5061642;28;20198;-78
2023/02/07 06:07:58;;;;;;;0.50;0.40;;;-1.40;99.90;;;;;;5055589;28;20681;-80
2023/02/07 06:10:25;;;;;;;0.50;0.40;;;-1.30;99.90;;;;;;5057773;28;20256;-80
2023/02/07 06:12:53;;;;;;;0.50;0.40;;;-1.30;99.90;;;;;;5060606;28;20218;-79
2023/02/07 06:15:20;;;;;;;0.50;0.50;;;-1.40;99.90;;;;;;5061600;28;20202;-78
2023/02/07 06:17:47;;;;;;;0.50;0.40;;;-1.40;99.90;;;;;;5059474;28;20273;-78
2023/02/07 06:20:14;;;;;;;0.50;0.40;;;-1.40;99.90;;;;;;5059255;28;20237;-79
2023/02/07 06:22:41;;;;;;;0.50;0.40;;;-1.50;99.90;;;;;;5060877;28;20229;-80
2023/02/07 06:25:10;;;;;;;0.50;0.40;;;-1.60;99.90;;;;;;5058487;28;20226;-79
2023/02/07 06:27:38;;;;;;;0.70;0.70;;;-1.60;99.90;;;;;;5059444;28;20206;-79
2023/02/07 06:30:07;;;;;;;5.13;4.80;;;-1.60;99.90;;;;;;5059362;28;20297;-79
2023/02/07 06:32:34;;;;;;;3.45;1.23;;;-1.60;99.90;;;;;;5058315;28;20553;-79
2023/02/07 06:35:01;;;;;;;0.50;0.40;;;-1.60;99.90;;;;;;5057744;28;20942;-78
2023/02/07 06:37:28;;;;;;;1.65;1.55;;;-1.60;99.90;;;;;;5057092;28;20202;-77
2023/02/07 06:39:55;;;;;;;0.50;0.40;;;-1.70;99.90;;;;;;5056775;28;20664;-77
2023/02/07 06:42:22;;;;;;;0.73;0.73;;;-1.60;99.90;;;;;;5055973;28;20675;-77
2023/02/07 06:44:49;;;;;;;1.73;1.63;;;-1.60;99.90;;;;;;5057678;28;20252;-78
2023/02/07 06:47:19;;;;;;;1.25;1.20;;;-1.60;99.90;;;;;;5056646;28;20215;-78
2023/02/07 06:49:46;;;;;;;0.50;0.45;;;-1.60;99.90;;;;;;5057221;28;20217;-76
2023/02/07 06:52:13;;;;;;;0.50;0.50;;;-1.60;99.90;;;;;;5058343;28;20199;-79
2023/02/07 06:54:41;;;;;;;0.95;0.95;;;-1.60;99.90;;;;;;5059252;28;20597;-79
2023/02/07 06:57:08;;;;;;;1.17;1.17;;;-1.70;99.90;;;;;;5053353;28;20211;-79
2023/02/07 06:59:36;;;;;;;1.88;1.83;;;-1.60;99.90;;;;;;5052784;28;20194;-78
2023/02/07 07:02:03;;;;;;;1.30;1.20;;;-1.70;99.90;;;;;;5060321;28;20724;-80
2023/02/07 07:04:31;;;;;;;0.50;0.50;;;-1.60;99.90;;;;;;5062723;28;20198;-79
2023/02/07 07:06:58;;;;;;;0.95;0.95;;;-1.70;99.90;;;;;;5062139;28;20257;-79
2023/02/07 07:09:25;;;;;;;1.23;1.23;;;-1.70;99.90;;;;;;5064335;28;20671;-78
2023/02/07 07:11:52;;;;;;;1.45;1.35;;;-1.70;99.90;;;;;;5066734;28;20218;-79
2023/02/07 07:14:19;;;;;;;1.35;1.25;;;-1.70;99.90;;;;;;5064949;28;20205;-78
2023/02/07 07:16:47;;;;;;;0.95;0.95;;;-1.70;99.90;;;;;;5066885;28;20194;-80
2023/02/07 07:19:14;;;;;;;1.20;1.20;;;-1.70;99.90;;;;;;5066747;28;20233;-80
2023/02/07 07:21:42;;;;;;;1.50;1.08;;;-1.70;99.90;;;;;;5065281;28;20198;-78
2023/02/07 07:24:09;;;;;;;4.97;4.53;;;-1.60;99.90;;;;;;5064793;28;20198;-79
2023/02/07 07:26:36;;;;;;;0.70;0.70;;;-1.60;99.90;;;;;;5064521;28;20206;-79
2023/02/07 07:29:03;;;;;;;0.88;0.82;;;-1.60;99.90;;;;;;5066946;28;20218;-79
2023/02/07 07:31:31;;;;;;;0.85;0.85;;;-1.60;99.90;;;;;;5066148;28;20558;-79
2023/02/07 07:33:58;;;;;;;0.60;0.60;;;-1.60;99.90;;;;;;5066330;28;20237;-82
2023/02/07 07:36:25;;;;;;;0.50;0.40;;;-1.50;99.90;;;;;;5067549;28;20281;-81
2023/02/07 07:38:54;;;;;;;0.50;0.43;;;-1.50;99.90;;;;;;5066643;28;20241;-79
2023/02/07 07:41:20;;;;;;;0.50;0.40;;;-1.40;99.90;;;;;;5067873;28;20202;-80
2023/02/07 07:43:47;;;;;;;0.60;0.60;;;-1.40;99.90;;;;;;5066957;28;20265;-80
2023/02/07 07:46:14;;;;;;;1.45;1.35;;;-1.30;99.90;;;;;;5064419;28;20198;-79
2023/02/07 07:48:41;;;;;;;0.50;0.40;;;-1.20;99.90;;;;;;5065857;28;20313;-78
2023/02/07 07:51:08;;;;;;;2.15;2.05;;;-0.50;99.90;;;;;;5064304;28;20202;-79
2023/02/07 07:53:35;;;;;;;0.50;0.40;;;0.40;99.90;;;;;;5063845;28;20195;-79
2023/02/07 07:56:04;;;;;;;9.82;9.10;;;1.50;99.90;;;;;;5065918;28;20214;-80
2023/02/07 07:58:31;;;;;;;2.97;2.55;;;2.60;99.90;;;;;;5065486;28;20207;-77
2023/02/07 08:00:58;;;;;;;0.50;0.40;;;3.30;99.90;;;;;;5065440;28;20234;-82
2023/02/07 08:03:25;;;;;;;2.20;2.10;;;4.20;99.90;;;;;;5066860;28;20231;-78
2023/02/07 08:05:52;;;;;;;0.50;0.40;;;5.00;99.90;;;;;;5066982;28;20195;-78
2023/02/07 08:08:19;;;;;;;0.88;0.88;;;5.70;99.90;;;;;;5066415;28;20223;-80
2023/02/07 08:10:47;;;;;;;0.50;0.50;;;6.60;99.90;;;;;;5065665;28;20278;-80
2023/02/07 08:13:17;;;;;;;0.40;0.40;;;7.70;99.90;;;;;;5065437;28;20197;-80
2023/02/07 08:15:44;;;;;;;0.50;0.40;;;8.70;99.90;;;;;;5065918;28;20237;-79
2023/02/07 08:18:11;;;;;;;0.50;0.40;;;9.70;99.90;;;;;;5066979;28;20269;-80
2023/02/07 08:20:38;;;;;;;0.50;0.50;;;10.60;99.90;;;;;;5065210;28;20209;-79
2023/02/07 08:23:05;;;;;;;0.50;0.50;;;11.50;99.90;;;;;;5065449;28;20194;-79
2023/02/07 08:25:32;;;;;;;1.00;1.00;;;12.40;99.90;;;;;;5064093;28;20473;-78
2023/02/07 08:27:59;;;;;;;1.97;1.87;;;13.00;99.90;;;;;;5063641;28;20526;-79
2023/02/07 08:30:27;;;;;;;0.50;0.40;;;13.10;99.90;;;;;;5065760;28;20441;-79
2023/02/07 08:32:57;;;;;;;2.70;2.10;;;12.80;99.90;;;;;;5064992;28;20452;-79
2023/02/07 08:35:25;;;;;;;0.67;0.67;;;13.30;99.90;;;;;;5064009;28;20461;-79
2023/02/07 08:37:52;;;;;;;0.50;0.40;;;14.20;99.90;;;;;;5064266;28;20907;-80
2023/02/07 08:40:20;;;;;;;0.50;0.40;;;14.60;99.90;;;;;;5063862;28;20452;-78
2023/02/07 08:42:46;;;;;;;0.73;0.73;;;15.70;94.60;;;;;;5063580;28;20914;-78
2023/02/07 08:45:14;;;;;;;0.50;0.40;;;16.40;95.40;;;;;;5061455;28;20537;-79
2023/02/07 08:47:43;;;;;;;0.87;0.87;;;17.40;88.70;;;;;;5062163;28;20469;-77
2023/02/07 08:50:11;;;;;;;0.50;0.33;;;18.10;82.90;;;;;;5062681;28;20441;-79
2023/02/07 08:52:38;;;;;;;2.00;1.90;;;19.00;79.80;;;;;;5063546;28;20475;-79
2023/02/07 08:55:06;;;;;;;0.50;0.50;;;19.60;76.20;;;;;;5062696;28;20491;-79
2023/02/07 08:57:33;;;;;;;0.60;0.53;;;20.20;72.20;;;;;;5060722;28;20487;-79
2023/02/07 09:00:00;;;;;;;0.50;0.30;;;20.70;66.90;;;;;;5062320;28;20441;-80
2023/02/07 09:02:27;;;;;;;1.10;0.97;;;21.00;63.50;;;;;;5064827;28;20509;-81
2023/02/07 09:04:55;;;;;;;0.60;0.50;;;20.90;61.50;;;;;;5066468;28;20825;-79
2023/02/07 09:07:23;;;;;;;0.50;0.40;;;21.30;59.20;;;;;;5066207;28;20461;-79
2023/02/07 09:09:50;;;;;;;0.50;0.40;;;21.70;56.90;;;;;;5065393;28;20518;-78
2023/02/07 09:12:17;;;;;;;0.50;0.40;;;21.70;55.00;;;;;;5066219;28;20445;-80
2023/02/07 09:14:45;;;;;;;0.50;0.30;;;21.50;54.80;;;;;;5064060;28;20495;-79
2023/02/07 09:17:12;;;;;;;0.80;0.80;;;21.40;53.50;;;;;;5065003;28;20469;-79
2023/02/07 09:19:39;;;;;;;0.50;0.30;;;21.70;54.70;;;;;;5065187;28;20451;-80
2023/02/07 09:22:08;;;;;;;0.50;0.40;;;21.60;52.70;;;;;;5063921;28;20457;-79
2023/02/07 09:24:35;;;;;;;0.50;0.40;;;21.50;52.40;;;;;;5064130;28;20490;-80
2023/02/07 09:27:07;;;;;;;0.50;0.30;;;21.30;51.80;;;;;;5063800;28;20894;-78
2023/02/07 09:29:34;;;;;;;0.60;0.60;;;21.40;53.30;;;;;;5062987;28;20484;-79
2023/02/07 09:32:01;;;;;;;0.50;0.30;;;21.00;52.00;;;;;;5059001;28;20449;-79
2023/02/07 09:34:28;;;;;;;2.83;0.90;;;20.40;54.30;;;;;;5060611;28;20461;-80
2023/02/07 09:36:55;;;;;;;0.50;0.37;;;19.80;52.60;;;;;;5060355;28;20473;-80
2023/02/07 09:39:26;;;;;;;0.50;0.40;;;19.20;53.60;;;;;;5062477;28;20799;-79
2023/02/07 09:42:06;;;;;;;0.50;0.40;;;18.70;53.50;;;;;;5063705;28;20457;-79
2023/02/07 09:44:46;;;;;;;0.50;0.40;;;17.80;53.10;;;;;;5060667;28;20443;-79
2023/02/07 09:47:18;;;;;;;0.50;0.40;;;16.80;53.90;;;;;;5060581;28;20804;-79
2023/02/07 09:49:49;;;;;;;0.50;0.50;;;16.00;55.00;;;;;;5061170;28;20572;-76
2023/02/07 09:52:20;;;;;;;0.60;0.60;;;15.20;55.60;;;;;;5098046;22;20525;-77
2023/02/07 09:54:51;;;;;;;0.50;0.40;;;14.20;57.40;;;;;;5051317;28;20464;-79
2023/02/07 09:57:21;;;;;;;0.50;0.50;;;13.80;58.70;;;;;;5054727;28;20437;-77
2023/02/07 09:59:53;;;;;;;0.50;0.40;;;14.00;61.40;;;;;;5047731;28;20521;-77
2023/02/07 10:02:25;;;;;;;0.50;0.40;;;13.90;60.00;;;;;;5033027;28;20881;-77
2023/02/07 10:04:55;;;;;;;0.50;0.40;;;13.30;59.60;;;;;;5033368;28;20488;-78
2023/02/07 10:07:22;;;;;;;2.60;2.20;;;12.70;60.20;;;;;;5033223;28;20875;-77
2023/02/07 10:09:50;;;;;;;0.50;0.40;;;11.80;59.90;;;;;;5034284;28;20493;-78
2023/02/07 10:13:00;;;;;;;0.95;0.82;;;11.00;61.00;;;;;;5032458;28;20493;-78
2023/02/07 10:15:47;;;;;;;0.60;0.60;;;10.00;61.60;;;;;;4970477;28;20272;-77
2023/02/07 10:18:30;;;;;;;0.50;0.40;;;9.90;65.50;;;;;;4970478;28;20193;-78
2023/02/07 10:21:01;;;;;;;0.50;0.40;;;9.20;65.90;;;;;;4971564;28;20221;-78
2023/02/07 10:23:43;;;;;;;0.50;0.40;;;9.10;67.70;;;;;;4970566;28;20672;-77
2023/02/07 10:26:23;;;;;;;0.50;0.40;;;8.90;68.90;;;;;;4970311;28;20263;-78
2023/02/07 10:29:08;;;;;;;0.50;0.40;;;8.80;69.40;;;;;;4970065;28;20476;-78
2023/02/07 10:31:38;;;;;;;0.50;0.40;;;8.70;70.00;;;;;;4970451;28;20312;-77
2023/02/07 10:34:13;;;;;;;0.50;0.40;;;8.80;70.50;;;;;;4970244;28;20539;-78
2023/02/07 10:36:44;;;;;;;0.60;0.60;;;8.80;72.00;;;;;;4969938;28;20177;-77
2023/02/07 10:39:18;;;;;;;1.45;1.15;;;8.90;72.10;;;;;;4970573;28;20293;-77
2023/02/07 10:41:46;;;;;;;1.50;0.82;;;8.80;71.40;;;;;;4970616;28;20324;-77
2023/02/07 10:44:17;;;;;;;0.50;0.40;;;9.00;72.00;;;;;;4970731;28;20285;-78
2023/02/07 10:46:46;;;;;;;0.50;0.40;;;9.10;72.10;;;;;;5010106;28;20386;-77
2023/02/07 10:49:20;;;;;;;0.98;0.50;;;9.00;70.80;;;;;;5030892;28;20305;-78
2023/02/07 10:51:47;;;;;;;1.48;1.02;;;9.10;71.70;;;;;;5030960;28;20226;-77
2023/02/07 10:54:18;;;;;;;0.70;0.50;;;9.00;70.20;;;;;;5031313;28;20227;-76
2023/02/07 10:56:49;;;;;;;0.50;0.40;;;9.80;71.50;;;;;;5031586;28;20184;-77
2023/02/07 10:59:44;;;;;;;0.50;0.40;;;10.60;68.90;;;;;;5030531;28;20778;-77
2023/02/07 11:02:47;;;;;;;0.50;0.40;;;11.20;66.10;;;;;;5031959;28;20811;-78
2023/02/07 11:05:33;;;;;;;0.50;0.40;;;11.80;62.50;;;;;;4999053;28;20819;-76
2023/02/07 11:08:01;;;;;;;0.90;0.90;;;11.90;62.10;;;;;;5031283;28;20465;-78
2023/02/07 11:10:32;;;;;;;0.50;0.40;;;12.70;64.20;;;;;;5030894;28;20473;-77
2023/02/07 11:13:02;;;;;;;0.50;0.40;;;13.10;60.20;;;;;;5031561;28;20457;-78
2023/02/07 11:15:38;;;;;;;0.50;0.40;;;13.80;59.30;;;;;;5030830;28;20520;-78
2023/02/07 11:18:06;;;;;;;0.50;0.40;;;13.70;56.70;;;;;;5030979;28;20460;-77
2023/02/07 11:20:36;;;;;;;0.50;0.40;;;13.70;56.50;;;;;;5031001;28;20452;-77
2023/02/07 11:23:07;;;;;;;0.50;0.40;;;13.90;57.60;;;;;;5031520;28;20541;-77
2023/02/07 11:25:38;;;;;;;0.50;0.40;;;13.80;57.10;;;;;;5030680;28;20453;-77
2023/02/07 11:28:07;;;;;;;0.50;0.40;;;13.00;56.10;;;;;;5031492;28;20778;-76
2023/02/07 11:30:39;;;;;;;0.50;0.40;;;13.10;58.60;;;;;;5031301;28;20505;-77
2023/02/07 11:33:18;;;;;;;0.50;0.50;;;13.20;59.30;;;;;;5031331;28;20450;-78
2023/02/07 11:36:13;;;;;;;1.27;1.27;;;13.30;58.50;;;;;;5030984;28;20537;-77
2023/02/07 11:38:46;;;;;;;0.50;0.40;;;12.40;56.30;;;;;;5030860;28;20761;-77
2023/02/07 11:41:18;;;;;;;0.50;0.40;;;11.80;57.70;;;;;;5031007;28;21011;-77
2023/02/07 11:43:59;;;;;;;3.33;0.97;;;11.60;58.10;;;;;;5031554;28;20869;-77
2023/02/07 11:46:36;;;;;;;0.80;0.80;;;11.60;59.00;;;;;;5031518;28;20436;-77
2023/02/07 11:49:06;;;;;;;0.60;0.40;;;11.30;59.90;;;;;;5031178;28;20589;-77
2023/02/07 11:51:34;;;;;;;0.83;0.83;;;11.60;60.60;;;;;;5029974;28;20469;-78
2023/02/07 11:54:02;;;;;;;0.50;0.50;;;11.50;58.50;;;;;;5030913;28;20442;-77
2023/02/07 11:56:33;;;;;;;0.50;0.40;;;11.90;59.50;;;;;;5033895;28;20433;-77
2023/02/07 11:59:05;;;;;;;0.60;0.60;;;12.20;58.00;;;;;;5034554;28;20426;-77
2023/02/07 12:01:35;;;;;;;1.30;1.27;;;12.50;58.30;;;;;;5034827;28;20494;-77
2023/02/07 12:04:08;;;;;;;0.50;0.40;;;12.60;57.60;;;;;;5035205;28;20500;-77
2023/02/07 12:06:40;;;;;;;0.77;0.77;;;13.00;57.10;;;;;;5033977;28;20943;-78
2023/02/07 12:09:20;;;;;;;0.50;0.40;;;12.10;55.10;;;;;;5034615;28;20971;-76
2023/02/07 12:11:48;;;;;;;0.50;0.40;;;12.00;56.30;;;;;;5034310;28;20461;-77
2023/02/07 12:14:24;;;;;;;1.27;1.17;;;12.20;56.90;;;;;;5034113;28;20775;-77
2023/02/07 12:16:55;;;;;;;0.50;0.40;;;12.20;58.10;;;;;;5034465;28;20977;-77
2023/02/07 12:19:28;;;;;;;1.20;1.10;;;12.30;58.90;;;;;;5034652;28;20522;-76
2023/02/07 12:22:00;;;;;;;0.60;0.50;;;12.40;58.30;;;;;;5035944;28;20457;-78
2023/02/07 12:24:32;;;;;;;0.70;0.67;;;12.20;58.50;;;;;;5036002;28;20446;-78
2023/02/07 12:27:04;;;;;;;0.67;0.67;;;12.00;56.80;;;;;;5036420;28;20550;-79
2023/02/07 12:29:47;;;;;;;0.50;0.40;;;11.10;56.70;;;;;;5036870;28;21057;-77
2023/02/07 12:32:25;;;;;;;0.60;0.50;;;10.50;57.50;;;;;;5035506;28;20465;-79
2023/02/07 12:34:58;;;;;;;0.50;0.40;;;10.10;58.10;;;;;;5035202;28;20899;-78
2023/02/07 12:37:32;;;;;;;2.03;1.92;;;9.70;59.50;;;;;;5034901;28;20656;-78
2023/02/07 12:40:04;;;;;;;0.50;0.50;;;9.30;60.20;;;;;;5034232;28;20179;-77
2023/02/07 12:42:38;;;;;;;0.70;0.63;;;9.00;60.60;;;;;;5034012;28;20868;-77
2023/02/07 12:45:14;;;;;;;0.50;0.40;;;8.90;61.00;;;;;;5033408;28;20886;-78
2023/02/07 12:47:49;;;;;;;0.50;0.40;;;8.90;62.10;;;;;;5033631;28;20202;-77
2023/02/07 12:50:28;;;;;;;0.50;0.40;;;9.10;64.40;;;;;;5033430;28;20294;-77
2023/02/07 12:53:09;;;;;;;0.80;0.80;;;9.10;63.10;;;;;;5033719;28;20286;-78
2023/02/07 12:55:45;;;;;;;0.60;0.60;;;8.90;62.90;;;;;;5033465;28;20421;-77
2023/02/07 12:58:30;;;;;;;2.35;0.95;;;8.80;64.10;;;;;;5033839;28;20187;-77
2023/02/07 13:01:03;;;;;;;5.72;0.70;;;8.40;63.50;;;;;;5033771;28;20215;-77
2023/02/07 13:03:47;;;;;;;0.50;0.40;;;8.60;65.30;;;;;;5033440;28;20278;-77
2023/02/07 13:06:22;;;;;;;0.65;0.55;;;8.70;63.80;;;;;;5033321;28;20184;-77